sensor_id;sensor_type;location;lat;lon;timestamp;P1;durP1;ratioP1;P2;durP2;ratioP2
53401;SDS011;39295;45.534;20.034;2024-01-30T14:11:38;19.70;;;11.75;;
53401;SDS011;39295;45.534;20.034;2024-01-30T14:14:04;18.13;;;10.68;;
53401;SDS011;39295;45.534;20.034;2024-01-30T14:16:30;22.08;;;12.13;;
53401;SDS011;39295;45.534;20.034;2024-01-30T14:18:56;16.05;;;9.38;;
53401;SDS011;39295;45.534;20.034;2024-01-30T14:21:22;28.10;;;14.50;;
53401;SDS011;39295;45.534;20.034;2024-01-30T14:23:49;23.63;;;13.60;;
53401;SDS011;39295;45.534;20.034;2024-01-30T14:26:15;21.73;;;12.45;;
53401;SDS011;39295;45.534;20.034;2024-01-30T14:28:41;24.52;;;14.35;;
53401;SDS011;39295;45.534;20.034;2024-01-30T14:31:08;24.95;;;13.80;;
53401;SDS011;39295;45.534;20.034;2024-01-30T14:33:34;20.15;;;13.02;;
53401;SDS011;39295;45.534;20.034;2024-01-30T14:36:15;31.95;;;18.73;;
53401;SDS011;39295;45.534;20.034;2024-01-30T14:38:41;27.80;;;15.32;;
53401;SDS011;39295;45.534;20.034;2024-01-30T14:41:07;25.02;;;15.05;;
53401;SDS011;39295;45.534;20.034;2024-01-30T14:43:33;24.67;;;12.98;;
53401;SDS011;39295;45.534;20.034;2024-01-30T14:46:00;30.50;;;14.70;;
53401;SDS011;39295;45.534;20.034;2024-01-30T14:48:26;36.53;;;17.33;;
53401;SDS011;39295;45.534;20.034;2024-01-30T14:50:52;42.67;;;21.75;;
53401;SDS011;39295;45.534;20.034;2024-01-30T14:53:36;34.70;;;18.30;;
53401;SDS011;39295;45.534;20.034;2024-01-30T14:56:02;36.05;;;20.55;;
53401;SDS011;39295;45.534;20.034;2024-01-30T14:58:29;42.15;;;22.75;;
53401;SDS011;39295;45.534;20.034;2024-01-30T15:00:55;44.40;;;22.92;;
53401;SDS011;39295;45.534;20.034;2024-01-30T15:03:21;60.70;;;32.42;;
53401;SDS011;39295;45.534;20.034;2024-01-30T15:05:47;51.45;;;24.20;;
53401;SDS011;39295;45.534;20.034;2024-01-30T15:11:05;53.75;;;21.77;;
53401;SDS011;39295;45.534;20.034;2024-01-30T15:13:31;44.65;;;20.40;;
53401;SDS011;39295;45.534;20.034;2024-01-30T15:15:58;50.13;;;22.98;;
53401;SDS011;39295;45.534;20.034;2024-01-30T15:18:24;52.45;;;22.67;;
53401;SDS011;39295;45.534;20.034;2024-01-30T15:20:50;47.20;;;21.05;;
53401;SDS011;39295;45.534;20.034;2024-01-30T15:23:16;46.05;;;21.67;;
53401;SDS011;39295;45.534;20.034;2024-01-30T15:25:42;62.55;;;25.42;;
53401;SDS011;39295;45.534;20.034;2024-01-30T15:28:08;59.15;;;23.75;;
53401;SDS011;39295;45.534;20.034;2024-01-30T15:30:35;63.28;;;28.75;;
53401;SDS011;39295;45.534;20.034;2024-01-30T15:33:01;70.15;;;31.02;;
53401;SDS011;39295;45.534;20.034;2024-01-30T15:35:30;71.25;;;31.85;;
53401;SDS011;39295;45.534;20.034;2024-01-30T15:37:56;63.50;;;27.75;;
53401;SDS011;39295;45.534;20.034;2024-01-30T15:40:25;53.90;;;24.98;;
53401;SDS011;39295;45.534;20.034;2024-01-30T15:42:51;64.40;;;28.08;;
53401;SDS011;39295;45.534;20.034;2024-01-30T15:45:17;73.72;;;29.90;;
53401;SDS011;39295;45.534;20.034;2024-01-30T15:47:44;175.05;;;50.25;;
53401;SDS011;39295;45.534;20.034;2024-01-30T15:50:11;227.93;;;65.88;;
53401;SDS011;39295;45.534;20.034;2024-01-30T15:55:53;240.90;;;78.10;;
53401;SDS011;39295;45.534;20.034;2024-01-30T15:58:19;178.75;;;61.45;;
53401;SDS011;39295;45.534;20.034;2024-01-30T16:00:45;187.52;;;66.45;;
53401;SDS011;39295;45.534;20.034;2024-01-30T16:03:11;137.80;;;51.40;;
53401;SDS011;39295;45.534;20.034;2024-01-30T16:05:37;95.18;;;36.33;;
53401;SDS011;39295;45.534;20.034;2024-01-30T16:11:20;47.55;;;21.50;;
53401;SDS011;39295;45.534;20.034;2024-01-30T16:13:46;48.78;;;23.98;;
53401;SDS011;39295;45.534;20.034;2024-01-30T16:16:16;65.93;;;31.83;;
53401;SDS011;39295;45.534;20.034;2024-01-30T16:18:42;65.53;;;29.88;;
53401;SDS011;39295;45.534;20.034;2024-01-30T16:21:08;57.60;;;29.25;;
53401;SDS011;39295;45.534;20.034;2024-01-30T16:26:22;71.90;;;31.45;;
53401;SDS011;39295;45.534;20.034;2024-01-30T16:28:48;85.78;;;35.85;;
53401;SDS011;39295;45.534;20.034;2024-01-30T16:31:14;83.75;;;36.53;;
53401;SDS011;39295;45.534;20.034;2024-01-30T16:33:45;74.22;;;32.17;;
53401;SDS011;39295;45.534;20.034;2024-01-30T16:36:14;62.67;;;29.50;;
53401;SDS011;39295;45.534;20.034;2024-01-30T16:38:40;55.45;;;27.63;;
53401;SDS011;39295;45.534;20.034;2024-01-30T16:41:07;58.47;;;27.52;;
53401;SDS011;39295;45.534;20.034;2024-01-30T16:43:33;55.95;;;29.70;;
53401;SDS011;39295;45.534;20.034;2024-01-30T16:45:59;84.38;;;48.53;;
53401;SDS011;39295;45.534;20.034;2024-01-30T16:48:26;97.88;;;45.95;;
53401;SDS011;39295;45.534;20.034;2024-01-30T16:50:57;89.47;;;42.15;;
53401;SDS011;39295;45.534;20.034;2024-01-30T16:53:23;91.85;;;44.33;;
53401;SDS011;39295;45.534;20.034;2024-01-30T16:55:49;98.95;;;44.13;;
53401;SDS011;39295;45.534;20.034;2024-01-30T16:58:15;111.13;;;47.97;;
53401;SDS011;39295;45.534;20.034;2024-01-30T17:00:41;165.77;;;64.88;;
53401;SDS011;39295;45.534;20.034;2024-01-30T17:03:07;188.73;;;72.47;;
53401;SDS011;39295;45.534;20.034;2024-01-30T17:05:33;226.88;;;85.50;;
53401;SDS011;39295;45.534;20.034;2024-01-30T17:08:00;232.45;;;80.13;;
53401;SDS011;39295;45.534;20.034;2024-01-30T17:10:26;256.17;;;91.63;;
53401;SDS011;39295;45.534;20.034;2024-01-30T17:12:55;332.45;;;113.68;;
53401;SDS011;39295;45.534;20.034;2024-01-30T17:15:23;268.08;;;106.15;;
53401;SDS011;39295;45.534;20.034;2024-01-30T17:17:52;189.00;;;82.35;;
53401;SDS011;39295;45.534;20.034;2024-01-30T17:20:20;164.10;;;71.45;;
53401;SDS011;39295;45.534;20.034;2024-01-30T17:22:48;194.75;;;90.60;;
53401;SDS011;39295;45.534;20.034;2024-01-30T17:25:16;281.50;;;137.50;;
53401;SDS011;39295;45.534;20.034;2024-01-30T17:27:42;325.67;;;155.00;;
53401;SDS011;39295;45.534;20.034;2024-01-30T17:30:12;343.52;;;160.95;;
53401;SDS011;39295;45.534;20.034;2024-01-30T17:32:41;357.15;;;155.77;;
53401;SDS011;39295;45.534;20.034;2024-01-30T17:35:12;337.65;;;133.02;;
53401;SDS011;39295;45.534;20.034;2024-01-30T17:38:05;331.42;;;125.40;;
53401;SDS011;39295;45.534;20.034;2024-01-30T17:40:32;330.55;;;123.32;;
53401;SDS011;39295;45.534;20.034;2024-01-30T17:43:03;327.63;;;120.60;;
53401;SDS011;39295;45.534;20.034;2024-01-30T17:45:50;279.98;;;104.57;;
53401;SDS011;39295;45.534;20.034;2024-01-30T17:48:16;216.98;;;84.90;;
53401;SDS011;39295;45.534;20.034;2024-01-30T17:50:43;226.05;;;88.30;;
53401;SDS011;39295;45.534;20.034;2024-01-30T17:53:09;216.00;;;84.25;;
53401;SDS011;39295;45.534;20.034;2024-01-30T17:55:35;195.30;;;81.43;;
53401;SDS011;39295;45.534;20.034;2024-01-30T17:58:01;196.40;;;83.60;;
53401;SDS011;39295;45.534;20.034;2024-01-30T18:00:28;187.45;;;82.65;;
53401;SDS011;39295;45.534;20.034;2024-01-30T18:02:54;219.30;;;89.90;;
53401;SDS011;39295;45.534;20.034;2024-01-30T18:05:21;202.65;;;89.43;;
53401;SDS011;39295;45.534;20.034;2024-01-30T18:07:47;189.05;;;84.55;;
53401;SDS011;39295;45.534;20.034;2024-01-30T18:10:14;163.30;;;74.80;;
53401;SDS011;39295;45.534;20.034;2024-01-30T18:12:44;163.70;;;73.28;;
53401;SDS011;39295;45.534;20.034;2024-01-30T18:15:10;154.40;;;68.70;;
53401;SDS011;39295;45.534;20.034;2024-01-30T18:17:41;147.35;;;67.63;;
53401;SDS011;39295;45.534;20.034;2024-01-30T18:20:11;123.18;;;60.15;;
53401;SDS011;39295;45.534;20.034;2024-01-30T18:22:37;111.78;;;55.75;;
53401;SDS011;39295;45.534;20.034;2024-01-30T18:25:06;102.25;;;51.47;;
53401;SDS011;39295;45.534;20.034;2024-01-30T18:27:33;94.53;;;48.78;;
53401;SDS011;39295;45.534;20.034;2024-01-30T18:29:59;86.47;;;44.50;;
53401;SDS011;39295;45.534;20.034;2024-01-30T18:32:26;75.68;;;41.55;;
53401;SDS011;39295;45.534;20.034;2024-01-30T18:34:54;69.78;;;37.78;;
53401;SDS011;39295;45.534;20.034;2024-01-30T18:43:42;65.97;;;33.67;;
53401;SDS011;39295;45.534;20.034;2024-01-30T18:46:08;62.03;;;34.13;;
53401;SDS011;39295;45.534;20.034;2024-01-30T18:48:35;58.03;;;32.05;;
53401;SDS011;39295;45.534;20.034;2024-01-30T18:51:01;68.55;;;33.75;;
53401;SDS011;39295;45.534;20.034;2024-01-30T18:53:27;60.33;;;31.52;;
53401;SDS011;39295;45.534;20.034;2024-01-30T18:55:54;44.15;;;25.50;;
53401;SDS011;39295;45.534;20.034;2024-01-30T18:58:20;46.20;;;25.45;;
53401;SDS011;39295;45.534;20.034;2024-01-30T19:00:47;43.72;;;22.75;;
53401;SDS011;39295;45.534;20.034;2024-01-30T19:03:14;45.75;;;24.75;;
53401;SDS011;39295;45.534;20.034;2024-01-30T19:05:41;69.05;;;33.90;;
53401;SDS011;39295;45.534;20.034;2024-01-30T19:08:07;87.80;;;41.33;;
53401;SDS011;39295;45.534;20.034;2024-01-30T19:10:36;93.88;;;42.90;;
53401;SDS011;39295;45.534;20.034;2024-01-30T19:13:02;104.78;;;45.92;;
53401;SDS011;39295;45.534;20.034;2024-01-30T19:15:32;102.90;;;46.55;;
53401;SDS011;39295;45.534;20.034;2024-01-30T19:17:58;92.78;;;44.17;;
53401;SDS011;39295;45.534;20.034;2024-01-30T19:20:25;102.93;;;44.17;;
53401;SDS011;39295;45.534;20.034;2024-01-30T19:22:51;89.68;;;41.20;;
53401;SDS011;39295;45.534;20.034;2024-01-30T19:25:17;72.38;;;34.38;;
53401;SDS011;39295;45.534;20.034;2024-01-30T19:27:43;61.58;;;33.15;;
53401;SDS011;39295;45.534;20.034;2024-01-30T19:30:10;70.82;;;31.52;;
53401;SDS011;39295;45.534;20.034;2024-01-30T19:32:37;70.20;;;33.03;;
53401;SDS011;39295;45.534;20.034;2024-01-30T19:35:03;56.85;;;28.92;;
53401;SDS011;39295;45.534;20.034;2024-01-30T19:37:29;49.95;;;27.02;;
53401;SDS011;39295;45.534;20.034;2024-01-30T19:40:05;56.15;;;26.05;;
53401;SDS011;39295;45.534;20.034;2024-01-30T19:42:35;51.08;;;24.83;;
53401;SDS011;39295;45.534;20.034;2024-01-30T19:45:11;58.67;;;28.70;;
53401;SDS011;39295;45.534;20.034;2024-01-30T19:47:40;67.57;;;31.48;;
53401;SDS011;39295;45.534;20.034;2024-01-30T19:50:06;54.65;;;27.85;;
53401;SDS011;39295;45.534;20.034;2024-01-30T19:52:33;57.42;;;28.05;;
53401;SDS011;39295;45.534;20.034;2024-01-30T19:55:01;44.30;;;25.55;;
53401;SDS011;39295;45.534;20.034;2024-01-30T19:57:28;46.33;;;24.90;;
53401;SDS011;39295;45.534;20.034;2024-01-30T19:59:54;47.83;;;25.88;;
53401;SDS011;39295;45.534;20.034;2024-01-30T20:02:38;73.45;;;38.50;;
53401;SDS011;39295;45.534;20.034;2024-01-30T20:05:12;88.75;;;43.35;;
53401;SDS011;39295;45.534;20.034;2024-01-30T20:07:44;76.97;;;37.25;;
53401;SDS011;39295;45.534;20.034;2024-01-30T20:10:15;45.73;;;26.53;;
53401;SDS011;39295;45.534;20.034;2024-01-30T20:12:41;46.45;;;29.63;;
53401;SDS011;39295;45.534;20.034;2024-01-30T20:15:07;46.72;;;27.60;;
53401;SDS011;39295;45.534;20.034;2024-01-30T20:20:08;38.08;;;22.48;;
53401;SDS011;39295;45.534;20.034;2024-01-30T20:28:48;35.08;;;21.52;;
53401;SDS011;39295;45.534;20.034;2024-01-30T20:31:22;36.90;;;21.23;;
53401;SDS011;39295;45.534;20.034;2024-01-30T20:33:49;42.80;;;22.20;;
53401;SDS011;39295;45.534;20.034;2024-01-30T20:36:15;43.30;;;24.05;;
53401;SDS011;39295;45.534;20.034;2024-01-30T20:38:42;49.28;;;28.52;;
53401;SDS011;39295;45.534;20.034;2024-01-30T20:41:08;58.92;;;30.35;;
53401;SDS011;39295;45.534;20.034;2024-01-30T20:43:40;58.97;;;31.33;;
53401;SDS011;39295;45.534;20.034;2024-01-30T20:46:08;65.90;;;32.80;;
53401;SDS011;39295;45.534;20.034;2024-01-30T20:48:36;75.15;;;37.53;;
53401;SDS011;39295;45.534;20.034;2024-01-30T20:51:02;85.22;;;39.03;;
53401;SDS011;39295;45.534;20.034;2024-01-30T20:53:28;94.28;;;41.40;;
53401;SDS011;39295;45.534;20.034;2024-01-30T20:55:54;99.63;;;44.83;;
53401;SDS011;39295;45.534;20.034;2024-01-30T20:58:21;92.57;;;43.22;;
53401;SDS011;39295;45.534;20.034;2024-01-30T21:00:47;94.28;;;42.45;;
53401;SDS011;39295;45.534;20.034;2024-01-30T21:03:14;88.82;;;42.33;;
53401;SDS011;39295;45.534;20.034;2024-01-30T21:05:45;98.57;;;47.17;;
53401;SDS011;39295;45.534;20.034;2024-01-30T21:08:11;82.50;;;41.22;;
53401;SDS011;39295;45.534;20.034;2024-01-30T21:10:38;93.55;;;45.10;;
53401;SDS011;39295;45.534;20.034;2024-01-30T21:13:06;95.22;;;45.35;;
53401;SDS011;39295;45.534;20.034;2024-01-30T21:15:54;89.28;;;43.10;;
53401;SDS011;39295;45.534;20.034;2024-01-30T21:18:20;71.20;;;37.17;;
53401;SDS011;39295;45.534;20.034;2024-01-30T21:20:46;56.58;;;31.00;;
53401;SDS011;39295;45.534;20.034;2024-01-30T21:26:22;41.22;;;23.42;;
53401;SDS011;39295;45.534;20.034;2024-01-30T21:28:48;44.25;;;24.27;;
53401;SDS011;39295;45.534;20.034;2024-01-30T21:31:16;53.70;;;26.35;;
53401;SDS011;39295;45.534;20.034;2024-01-30T21:33:44;61.10;;;28.98;;
53401;SDS011;39295;45.534;20.034;2024-01-30T21:36:11;51.58;;;25.00;;
53401;SDS011;39295;45.534;20.034;2024-01-30T21:41:45;42.33;;;22.55;;
53401;SDS011;39295;45.534;20.034;2024-01-30T21:44:11;40.40;;;22.45;;
53401;SDS011;39295;45.534;20.034;2024-01-30T21:46:38;40.50;;;24.23;;
53401;SDS011;39295;45.534;20.034;2024-01-30T21:49:06;44.75;;;24.40;;
53401;SDS011;39295;45.534;20.034;2024-01-30T21:51:32;38.22;;;21.75;;
53401;SDS011;39295;45.534;20.034;2024-01-30T21:53:59;35.78;;;20.88;;
53401;SDS011;39295;45.534;20.034;2024-01-30T21:56:26;33.80;;;20.30;;
53401;SDS011;39295;45.534;20.034;2024-01-30T21:59:11;32.15;;;20.25;;
53401;SDS011;39295;45.534;20.034;2024-01-30T22:01:39;32.40;;;19.92;;
53401;SDS011;39295;45.534;20.034;2024-01-30T22:04:05;34.65;;;20.40;;
53401;SDS011;39295;45.534;20.034;2024-01-30T22:07:03;33.95;;;20.35;;
53401;SDS011;39295;45.534;20.034;2024-01-30T22:09:31;39.05;;;22.38;;
53401;SDS011;39295;45.534;20.034;2024-01-30T22:11:57;39.08;;;22.23;;
53401;SDS011;39295;45.534;20.034;2024-01-30T22:14:25;37.75;;;22.52;;
53401;SDS011;39295;45.534;20.034;2024-01-30T22:20:16;41.05;;;22.10;;
53401;SDS011;39295;45.534;20.034;2024-01-30T22:26:02;40.33;;;23.15;;
53401;SDS011;39295;45.534;20.034;2024-01-30T22:28:46;37.05;;;22.15;;
53401;SDS011;39295;45.534;20.034;2024-01-30T22:34:16;39.75;;;22.27;;
53401;SDS011;39295;45.534;20.034;2024-01-30T23:00:23;36.72;;;21.20;;
